KEVB/EVB METAR and TAF weather

Enter ICAO airport designator
Station Type Date Time Source
KEVB METAR 2021/03/06 02:47 UTC NOAA

KEVB 060247Z 36005KT 10SM SCT050 15/14 A3001 RMK LAST


Station Type Date Time Source
KEVB Decoded METAR 2021/03/06 02:47 UTC NOAA

New Smyrna Beach, New Smyrna Beach Municipal Airport, FL, United States (KEVB) 29-03-20N 080-56-54W
Mar 05, 2021 - 09:47 PM EST / 2021.03.06 0247 UTC
Wind: from the N (360 degrees) at 6 MPH (5 KT):0
Visibility: 10 mile(s):0
Sky conditions: partly cloudy
Temperature: 59 F (15 C)
Dew Point: 57 F (14 C)
Relative Humidity: 93%
Pressure (altimeter): 30.01 in. Hg (1016 hPa)
ob: KEVB 060247Z 36005KT 10SM SCT050 15/14 A3001 RMK LAST
cycle: 3

Station Type Date Time Source
KEVB TAF UTC NOAA

Error!

Example: see airport list